Time;durP1;ratioP1;P1;durP2;ratioP2;P2;SDS_P1;SDS_P2;PMS_P1;PMS_P2;Temp;Humidity;BMP_temperature;BMP_pressure;BME280_temperature;BME280_humidity;BME280_pressure;Samples;Min_cycle;Max_cycle;Signal;HPM_P1;HPM_P2
2021/01/10 00:02:26;;;;;;;18.47;7.20;;;-0.10;99.90;;;;;;5097669;28;38181;-73
2021/01/10 00:04:53;;;;;;;20.53;8.90;;;-0.20;99.90;;;;;;5092291;28;38748;-73
2021/01/10 00:07:23;;;;;;;12.57;7.13;;;-0.10;99.90;;;;;;5090729;28;38099;-73
2021/01/10 00:09:49;;;;;;;14.07;7.03;;;-0.10;99.90;;;;;;5092949;28;38293;-73
2021/01/10 00:12:21;;;;;;;12.13;7.03;;;0.00;99.90;;;;;;5091164;28;37116;-73
2021/01/10 00:14:47;;;;;;;13.17;6.03;;;0.10;99.90;;;;;;5094090;28;39951;-73
2021/01/10 00:17:13;;;;;;;14.97;7.47;;;0.10;99.90;;;;;;5078946;28;37822;-73
2021/01/10 00:19:42;;;;;;;14.33;8.00;;;0.20;99.90;;;;;;5099011;28;38170;-73
2021/01/10 00:22:19;;;;;;;9.97;4.90;;;0.20;99.90;;;;;;5096243;28;37608;-72
2021/01/10 00:24:46;;;;;;;17.83;6.97;;;0.30;99.90;;;;;;5092633;28;39587;-73
2021/01/10 00:27:14;;;;;;;16.00;7.17;;;0.30;99.90;;;;;;5054057;28;39043;-73
2021/01/10 00:29:50;;;;;;;17.03;7.43;;;0.30;99.90;;;;;;5061057;28;38415;-72
2021/01/10 00:32:17;;;;;;;11.73;5.67;;;0.40;99.90;;;;;;5067189;28;39088;-72
2021/01/10 00:34:43;;;;;;;13.17;6.27;;;0.50;99.90;;;;;;5069576;28;39030;-73
2021/01/10 00:37:11;;;;;;;14.60;6.47;;;0.50;99.90;;;;;;5072775;28;39526;-73
2021/01/10 00:39:37;;;;;;;14.93;6.70;;;0.50;99.90;;;;;;5073057;28;39154;-73
2021/01/10 00:42:08;;;;;;;12.77;5.47;;;0.50;99.90;;;;;;5085200;28;37005;-73
2021/01/10 00:44:36;;;;;;;9.97;5.73;;;0.60;99.90;;;;;;5089644;28;40447;-73
2021/01/10 00:47:05;;;;;;;10.57;5.97;;;0.60;99.90;;;;;;5084402;28;38937;-73
2021/01/10 00:49:32;;;;;;;15.17;6.43;;;0.60;99.90;;;;;;5073023;28;38029;-72
2021/01/10 00:51:59;;;;;;;16.13;6.10;;;0.60;99.90;;;;;;5089461;28;37660;-73
2021/01/10 00:54:26;;;;;;;11.03;6.77;;;0.60;99.90;;;;;;5082196;28;39596;-73
2021/01/10 00:56:52;;;;;;;17.43;7.90;;;0.70;99.90;;;;;;5091244;28;38403;-74
2021/01/10 00:59:18;;;;;;;13.93;6.17;;;0.80;99.90;;;;;;5091293;27;37909;-73
2021/01/10 01:01:44;;;;;;;15.97;6.00;;;0.90;99.90;;;;;;5091917;28;37849;-73
2021/01/10 01:04:11;;;;;;;14.03;6.87;;;1.00;99.90;;;;;;5095547;28;38387;-73
2021/01/10 01:06:37;;;;;;;9.03;5.70;;;1.00;99.90;;;;;;5087006;28;39106;-73
2021/01/10 01:09:07;;;;;;;10.97;5.40;;;1.10;99.90;;;;;;5091458;28;38137;-73
2021/01/10 01:11:37;;;;;;;18.67;7.00;;;1.30;99.90;;;;;;5074172;28;37549;-73
2021/01/10 01:14:05;;;;;;;14.70;5.90;;;1.40;99.90;;;;;;5087811;28;38303;-72
2021/01/10 01:16:32;;;;;;;12.03;5.30;;;1.40;99.90;;;;;;5074175;28;37161;-73
2021/01/10 01:18:58;;;;;;;15.77;7.20;;;1.60;99.90;;;;;;5072804;28;39540;-73
2021/01/10 01:21:24;;;;;;;15.23;8.93;;;1.70;99.90;;;;;;5081860;28;35707;-73
2021/01/10 01:23:50;;;;;;;12.47;6.87;;;1.70;99.90;;;;;;5080632;28;37984;-73
2021/01/10 01:26:24;;;;;;;9.53;6.10;;;1.60;99.90;;;;;;5073534;28;37477;-73
2021/01/10 01:28:51;;;;;;;11.17;5.80;;;1.60;99.90;;;;;;5078847;28;38831;-73
2021/01/10 01:31:20;;;;;;;8.47;4.03;;;1.90;99.90;;;;;;5078616;28;40178;-74
2021/01/10 01:33:50;;;;;;;16.20;4.07;;;2.20;99.90;;;;;;5087372;28;38475;-73
2021/01/10 01:36:19;;;;;;;11.93;4.00;;;2.40;99.90;;;;;;5079111;28;39285;-73
2021/01/10 01:38:46;;;;;;;12.77;4.77;;;2.70;99.90;;;;;;5074746;28;38963;-73
2021/01/10 01:41:12;;;;;;;11.70;3.83;;;2.70;99.90;;;;;;5081000;28;37075;-73
2021/01/10 01:43:40;;;;;;;9.00;3.87;;;2.70;99.90;;;;;;5085971;28;39513;-73
2021/01/10 01:46:09;;;;;;;11.20;4.37;;;2.70;99.90;;;;;;5085608;28;38955;-73
2021/01/10 01:48:36;;;;;;;9.30;3.73;;;2.70;99.90;;;;;;5092513;28;38711;-74
2021/01/10 01:51:04;;;;;;;9.97;4.80;;;2.50;99.90;;;;;;5080445;28;38043;-73
2021/01/10 01:53:30;;;;;;;9.63;4.93;;;2.40;99.90;;;;;;5077376;28;38864;-73
2021/01/10 01:55:58;;;;;;;10.77;4.53;;;2.30;99.90;;;;;;5093045;28;39357;-73
2021/01/10 01:58:25;;;;;;;20.33;6.90;;;2.20;99.90;;;;;;5070132;28;38830;-74
2021/01/10 02:00:52;;;;;;;13.17;4.80;;;2.10;99.90;;;;;;5086197;28;36566;-73
2021/01/10 02:03:34;;;;;;;9.70;4.67;;;2.00;99.90;;;;;;5055548;28;40245;-73
2021/01/10 02:06:12;;;;;;;10.90;4.15;;;2.00;99.90;;;;;;5092961;28;38748;-73
2021/01/10 02:08:39;;;;;;;9.53;6.07;;;2.10;99.90;;;;;;5083561;28;48255;-73
2021/01/10 02:11:09;;;;;;;11.90;4.97;;;2.00;99.90;;;;;;5090262;28;36570;-73
2021/01/10 02:13:36;;;;;;;11.93;5.60;;;1.90;99.90;;;;;;5083021;28;39609;-73
2021/01/10 02:16:03;;;;;;;13.20;4.33;;;1.80;99.90;;;;;;5068743;28;40409;-73
2021/01/10 02:18:36;;;;;;;11.57;4.90;;;1.70;99.90;;;;;;5091919;28;38112;-73
2021/01/10 02:21:08;;;;;;;10.95;5.63;;;1.50;99.90;;;;;;5099521;27;37146;-73
2021/01/10 02:23:38;;;;;;;17.13;5.55;;;1.40;99.90;;;;;;5066225;28;40010;-73
2021/01/10 02:26:05;;;;;;;11.97;5.87;;;1.30;99.90;;;;;;5074667;28;38839;-73
2021/01/10 02:28:33;;;;;;;17.77;6.53;;;1.20;99.90;;;;;;5084516;28;38720;-72
2021/01/10 02:31:05;;;;;;;15.70;7.60;;;1.20;99.90;;;;;;5068611;28;35956;-73
2021/01/10 02:33:43;;;;;;;19.50;7.93;;;1.10;99.90;;;;;;5073724;28;47177;-73
2021/01/10 02:36:18;;;;;;;22.37;9.77;;;1.20;99.90;;;;;;5089799;28;38527;-73
2021/01/10 02:38:50;;;;;;;12.50;7.17;;;1.30;99.90;;;;;;5075288;28;40221;-73
2021/01/10 02:41:32;;;;;;;9.33;4.20;;;1.30;99.90;;;;;;5074957;28;36220;-72
2021/01/10 02:44:20;;;;;;;15.30;7.25;;;1.40;99.90;;;;;;5096108;28;39614;-73
2021/01/10 02:46:52;;;;;;;15.27;5.80;;;1.40;99.90;;;;;;5079394;28;47018;-72
2021/01/10 02:49:20;;;;;;;17.95;8.60;;;1.60;99.90;;;;;;5073921;28;41467;-73
2021/01/10 02:51:49;;;;;;;24.47;9.80;;;1.50;99.90;;;;;;5089597;28;37251;-73
2021/01/10 02:54:17;;;;;;;12.87;7.27;;;1.50;99.90;;;;;;5087671;28;39023;-74
2021/01/10 02:57:01;;;;;;;16.33;9.27;;;1.50;99.90;;;;;;5089556;28;39288;-73
2021/01/10 02:59:31;;;;;;;14.33;6.63;;;1.50;99.90;;;;;;5075379;28;47205;-73
2021/01/10 03:02:01;;;;;;;23.07;8.10;;;1.50;99.90;;;;;;5073288;28;36229;-73
2021/01/10 03:04:28;;;;;;;15.53;7.90;;;1.50;99.90;;;;;;5082971;28;47970;-73
2021/01/10 03:06:56;;;;;;;13.87;6.97;;;1.50;99.90;;;;;;5067056;28;37582;-73
2021/01/10 03:09:22;;;;;;;14.87;7.70;;;1.50;99.90;;;;;;5086487;28;38787;-73
2021/01/10 03:11:48;;;;;;;14.70;7.00;;;1.50;99.90;;;;;;5074065;28;36146;-72
2021/01/10 03:14:15;;;;;;;11.20;6.77;;;1.60;99.90;;;;;;5069444;28;37652;-73
2021/01/10 03:16:42;;;;;;;13.73;7.00;;;1.60;99.90;;;;;;5099393;28;39492;-73
2021/01/10 03:19:08;;;;;;;9.30;5.03;;;1.60;99.90;;;;;;5097264;28;37757;-73
2021/01/10 03:21:35;;;;;;;16.13;8.50;;;1.70;99.90;;;;;;5088068;28;38171;-73
2021/01/10 03:24:01;;;;;;;16.63;9.30;;;1.60;99.90;;;;;;5083050;28;37719;-73
2021/01/10 03:26:28;;;;;;;9.47;6.83;;;1.60;99.90;;;;;;5074745;28;48860;-73
2021/01/10 03:28:54;;;;;;;18.73;7.27;;;1.70;99.90;;;;;;5084116;28;38981;-73
2021/01/10 03:31:20;;;;;;;13.13;6.43;;;1.60;99.90;;;;;;5085769;28;38394;-73
2021/01/10 03:33:46;;;;;;;14.37;9.77;;;1.70;99.90;;;;;;5083727;28;39484;-73
2021/01/10 03:36:15;;;;;;;9.03;5.90;;;1.70;99.90;;;;;;5074338;28;38758;-73
2021/01/10 03:38:42;;;;;;;10.77;6.87;;;1.70;99.90;;;;;;5083672;27;36902;-73
2021/01/10 03:41:10;;;;;;;20.90;12.13;;;1.80;99.90;;;;;;5069735;28;35950;-73
2021/01/10 03:43:37;;;;;;;18.70;8.37;;;1.80;99.90;;;;;;5075187;28;39745;-73
2021/01/10 03:46:04;;;;;;;10.00;7.03;;;1.90;99.90;;;;;;5077719;28;38498;-73
2021/01/10 03:48:34;;;;;;;18.80;9.87;;;1.90;99.90;;;;;;5055574;28;39241;-73
2021/01/10 03:51:01;;;;;;;19.40;9.70;;;1.90;99.90;;;;;;5058409;28;38178;-73
2021/01/10 03:53:27;;;;;;;12.27;8.53;;;1.80;99.90;;;;;;5057098;28;47035;-73
2021/01/10 03:55:53;;;;;;;17.87;8.90;;;1.90;99.90;;;;;;5081625;28;39190;-73
2021/01/10 03:58:19;;;;;;;13.30;8.23;;;2.00;99.90;;;;;;5071110;28;38849;-73
2021/01/10 04:00:45;;;;;;;15.37;10.47;;;2.00;99.90;;;;;;5094463;28;37093;-73
2021/01/10 04:03:11;;;;;;;12.27;8.37;;;2.00;99.90;;;;;;5051893;28;39734;-73
2021/01/10 04:05:37;;;;;;;17.03;8.33;;;2.00;99.90;;;;;;5071996;28;38925;-73
2021/01/10 04:08:06;;;;;;;16.13;8.60;;;2.00;99.90;;;;;;5088885;28;38012;-73
2021/01/10 04:10:33;;;;;;;16.93;10.13;;;2.00;99.90;;;;;;5078119;28;38913;-73
2021/01/10 04:12:59;;;;;;;11.43;7.60;;;2.00;99.90;;;;;;5091451;28;38860;-73
2021/01/10 04:15:25;;;;;;;16.03;9.50;;;2.00;99.90;;;;;;5078198;28;38860;-73
2021/01/10 04:17:51;;;;;;;11.23;7.97;;;2.00;99.90;;;;;;5094284;28;38057;-73
2021/01/10 04:20:17;;;;;;;17.20;9.07;;;2.00;99.90;;;;;;5089382;28;37745;-72
2021/01/10 04:22:43;;;;;;;19.33;12.73;;;1.90;99.90;;;;;;5086784;28;38771;-74
2021/01/10 04:25:10;;;;;;;25.40;13.40;;;1.90;99.90;;;;;;5075406;28;39900;-73
2021/01/10 04:27:36;;;;;;;19.23;11.13;;;1.80;99.90;;;;;;5089601;28;38737;-73
2021/01/10 04:30:04;;;;;;;22.97;12.63;;;1.70;99.90;;;;;;5084688;28;38182;-73
2021/01/10 04:32:30;;;;;;;20.03;11.80;;;1.70;99.90;;;;;;5074956;28;47038;-73
2021/01/10 04:34:56;;;;;;;21.30;12.07;;;1.70;99.90;;;;;;5072210;28;37757;-73
2021/01/10 04:37:22;;;;;;;16.90;10.13;;;1.70;99.90;;;;;;5076609;28;38169;-74
2021/01/10 04:39:48;;;;;;;17.93;8.43;;;1.70;99.90;;;;;;5077837;28;37822;-73
2021/01/10 04:42:14;;;;;;;11.77;8.23;;;1.70;99.90;;;;;;5076168;28;38125;-73
2021/01/10 04:44:41;;;;;;;17.63;10.57;;;1.70;99.90;;;;;;5095252;28;39102;-73
2021/01/10 04:47:07;;;;;;;13.77;8.40;;;1.70;99.90;;;;;;5079071;28;38324;-73
2021/01/10 04:49:36;;;;;;;10.67;7.67;;;1.70;99.90;;;;;;5076371;28;36543;-73
2021/01/10 04:52:06;;;;;;;11.80;6.47;;;1.60;99.90;;;;;;5076665;28;38616;-74
2021/01/10 04:54:40;;;;;;;17.50;8.30;;;1.60;99.90;;;;;;5079079;28;40260;-73
2021/01/10 04:57:11;;;;;;;12.50;8.03;;;1.60;99.90;;;;;;5063831;28;37157;-73
2021/01/10 04:59:41;;;;;;;17.67;8.50;;;1.60;99.90;;;;;;5093862;28;38169;-73
2021/01/10 05:02:09;;;;;;;20.17;8.83;;;1.60;99.90;;;;;;5075520;28;37729;-73
2021/01/10 05:04:36;;;;;;;12.20;7.30;;;1.60;99.90;;;;;;5079774;28;38458;-73
2021/01/10 05:07:03;;;;;;;15.03;6.43;;;1.50;99.90;;;;;;5084813;28;38964;-73
2021/01/10 05:09:31;;;;;;;17.23;8.07;;;1.50;99.90;;;;;;5070301;28;36964;-73
2021/01/10 05:11:58;;;;;;;16.07;9.17;;;1.40;99.90;;;;;;5075062;28;39753;-73
2021/01/10 05:14:24;;;;;;;13.63;6.73;;;1.40;99.90;;;;;;5072368;28;38725;-73
2021/01/10 05:16:50;;;;;;;23.47;9.00;;;1.40;99.90;;;;;;5095540;28;37873;-73
2021/01/10 05:19:20;;;;;;;17.20;7.43;;;1.30;99.90;;;;;;5091135;27;38831;-74
2021/01/10 05:21:47;;;;;;;16.37;8.97;;;1.30;99.90;;;;;;5089313;28;39520;-73
2021/01/10 05:24:19;;;;;;;15.87;7.60;;;1.40;99.90;;;;;;5088591;28;38299;-73
2021/01/10 05:26:45;;;;;;;;;;;1.50;99.90;;;;;;5078427;28;38852;-73
2021/01/10 05:29:12;;;;;;;15.47;8.00;;;1.60;99.90;;;;;;5085562;28;37256;-73
2021/01/10 05:31:41;;;;;;;13.90;7.70;;;1.60;99.90;;;;;;5066144;28;40009;-73
2021/01/10 05:34:08;;;;;;;16.13;7.73;;;1.70;99.90;;;;;;5082059;28;36694;-73
2021/01/10 05:36:36;;;;;;;20.33;8.40;;;1.70;99.90;;;;;;5086301;28;38189;-73
2021/01/10 05:39:22;;;;;;;15.90;7.27;;;1.80;99.90;;;;;;5054579;28;37861;-72
2021/01/10 05:41:49;;;;;;;16.50;7.90;;;1.80;99.90;;;;;;5064917;28;39784;-73
2021/01/10 05:44:16;;;;;;;15.80;7.23;;;1.90;99.90;;;;;;5067606;28;37978;-72
2021/01/10 05:46:42;;;;;;;17.63;8.67;;;1.90;99.90;;;;;;5077186;28;40236;-72
2021/01/10 05:49:17;;;;;;;21.17;7.70;;;2.00;99.90;;;;;;5080211;28;36596;-73
2021/01/10 05:51:43;;;;;;;20.50;8.97;;;2.00;99.90;;;;;;5089558;28;39227;-73
2021/01/10 05:54:10;;;;;;;13.23;7.07;;;2.00;99.90;;;;;;5092654;28;39078;-73
2021/01/10 05:56:36;;;;;;;16.80;6.53;;;2.00;99.90;;;;;;5081072;28;39511;-73
2021/01/10 05:59:02;;;;;;;12.63;6.93;;;2.00;99.90;;;;;;5086332;27;37400;-73
2021/01/10 06:01:28;;;;;;;11.77;5.50;;;2.00;99.90;;;;;;5082219;28;39591;-73
2021/01/10 06:03:56;;;;;;;18.93;6.83;;;2.00;99.90;;;;;;5063579;28;38633;-73
2021/01/10 06:06:39;;;;;;;18.03;8.60;;;2.00;99.90;;;;;;5086578;28;39197;-73
2021/01/10 06:09:06;;;;;;;11.30;5.73;;;2.00;99.90;;;;;;5078302;28;38643;-73
2021/01/10 06:11:32;;;;;;;14.57;8.97;;;2.00;99.90;;;;;;5071238;28;39727;-73
2021/01/10 06:14:00;;;;;;;16.93;8.90;;;2.00;99.90;;;;;;5076320;28;38540;-73
2021/01/10 06:16:34;;;;;;;14.23;7.10;;;2.00;99.90;;;;;;5085950;28;47340;-73
2021/01/10 06:19:04;;;;;;;16.00;7.13;;;2.00;99.90;;;;;;5068618;27;38823;-73
2021/01/10 06:21:32;;;;;;;14.33;6.37;;;2.00;99.90;;;;;;5085258;28;48647;-73
2021/01/10 06:24:04;;;;;;;18.83;7.10;;;2.00;99.90;;;;;;5086331;28;38632;-73
2021/01/10 06:26:33;;;;;;;13.80;6.10;;;2.00;99.90;;;;;;5087281;28;48464;-73
2021/01/10 06:29:12;;;;;;;13.53;6.17;;;2.00;99.90;;;;;;5075194;28;38772;-73
2021/01/10 06:31:42;;;;;;;9.00;4.63;;;2.10;99.90;;;;;;5075491;28;47559;-73
2021/01/10 06:34:10;;;;;;;13.00;4.80;;;2.00;99.90;;;;;;5077864;28;38218;-73
2021/01/10 06:36:40;;;;;;;8.87;4.17;;;2.00;99.90;;;;;;5069323;28;39755;-73
2021/01/10 06:39:14;;;;;;;10.50;4.80;;;2.10;99.90;;;;;;5073441;28;36247;-73
2021/01/10 06:42:03;;;;;;;10.13;4.57;;;2.10;99.90;;;;;;5076604;28;40159;-73
2021/01/10 06:44:33;;;;;;;10.70;4.03;;;2.10;99.90;;;;;;5090717;28;48525;-75
2021/01/10 06:46:59;;;;;;;6.90;3.27;;;2.10;99.90;;;;;;5091159;28;38079;-73
2021/01/10 06:49:25;;;;;;;13.93;4.73;;;2.10;99.90;;;;;;5065534;28;37731;-73
2021/01/10 06:51:55;;;;;;;9.83;4.47;;;2.10;99.90;;;;;;5076497;28;40235;-73
2021/01/10 06:54:21;;;;;;;12.50;4.00;;;2.10;99.90;;;;;;5073490;28;37331;-73
2021/01/10 06:56:49;;;;;;;10.50;4.97;;;2.10;99.90;;;;;;5086984;28;38425;-73
2021/01/10 06:59:26;;;;;;;10.47;4.23;;;2.20;99.90;;;;;;5083138;28;37915;-73
2021/01/10 07:01:52;;;;;;;12.60;4.60;;;2.20;99.90;;;;;;5089822;28;42334;-73
2021/01/10 07:04:21;;;;;;;13.80;5.00;;;2.30;99.90;;;;;;5072447;28;39445;-73
2021/01/10 07:06:49;;;;;;;9.60;3.93;;;2.30;99.90;;;;;;5061954;28;39680;-73
2021/01/10 07:09:16;;;;;;;16.63;5.60;;;2.30;99.90;;;;;;5072026;28;38477;-73
2021/01/10 07:11:43;;;;;;;11.60;3.90;;;2.30;99.90;;;;;;5090727;28;40024;-73
2021/01/10 07:14:09;;;;;;;10.77;3.27;;;2.30;99.90;;;;;;5089562;28;39474;-73
2021/01/10 07:16:36;;;;;;;12.27;4.40;;;2.30;99.90;;;;;;5079288;28;38478;-73
2021/01/10 07:19:04;;;;;;;18.47;5.27;;;2.30;99.90;;;;;;5069782;28;39114;-73
2021/01/10 07:21:46;;;;;;;4.67;3.33;;;2.40;99.90;;;;;;5085344;28;39171;-73
2021/01/10 07:24:24;;;;;;;13.93;4.27;;;2.40;99.90;;;;;;5079387;28;38583;-72
2021/01/10 07:26:54;;;;;;;13.50;4.00;;;2.40;99.90;;;;;;5094331;28;39978;-73
2021/01/10 07:29:28;;;;;;;9.37;3.10;;;2.30;99.90;;;;;;5089302;28;36076;-73
2021/01/10 07:31:58;;;;;;;7.93;3.40;;;2.30;99.90;;;;;;5067868;28;40221;-73
2021/01/10 07:34:25;;;;;;;6.57;2.93;;;2.30;99.90;;;;;;5072290;28;39079;-73
2021/01/10 07:36:54;;;;;;;14.27;2.87;;;2.20;99.90;;;;;;5092368;28;38656;-74
2021/01/10 07:39:22;;;;;;;11.63;2.83;;;2.10;99.90;;;;;;5090206;28;36951;-74
2021/01/10 07:41:49;;;;;;;11.10;3.17;;;2.00;99.90;;;;;;5080565;28;40882;-73
2021/01/10 07:44:18;;;;;;;9.27;3.30;;;1.80;99.90;;;;;;5076733;28;38572;-73
2021/01/10 07:46:57;;;;;;;9.37;2.97;;;1.80;99.90;;;;;;5095125;28;36567;-73
2021/01/10 07:49:50;;;;;;;10.23;3.20;;;1.80;99.90;;;;;;5099863;28;37897;-74
2021/01/10 07:52:17;;;;;;;12.43;3.60;;;1.80;99.90;;;;;;5090400;28;38564;-72
2021/01/10 07:54:53;;;;;;;11.67;4.03;;;1.70;99.90;;;;;;5078606;28;39463;-73
2021/01/10 07:57:24;;;;;;;10.37;3.80;;;1.70;99.90;;;;;;5093388;28;37882;-72
2021/01/10 08:00:14;;;;;;;12.90;5.47;;;1.60;99.90;;;;;;5069595;28;37651;-73
2021/01/10 08:02:57;;;;;;;14.00;5.87;;;1.60;99.90;;;;;;5054603;28;47123;-73
2021/01/10 08:05:24;;;;;;;11.87;6.27;;;1.50;99.90;;;;;;5096157;28;38583;-73
2021/01/10 08:08:14;;;;;;;11.73;5.30;;;1.50;99.90;;;;;;5078354;28;37051;-73
2021/01/10 08:10:50;;;;;;;12.23;5.27;;;1.50;99.90;;;;;;5062338;28;48922;-73
2021/01/10 08:13:39;;;;;;;18.27;6.33;;;1.50;99.90;;;;;;5082363;28;40618;-73
2021/01/10 08:16:10;;;;;;;12.93;5.97;;;1.60;99.90;;;;;;5094385;28;39467;-73
2021/01/10 08:18:46;;;;;;;15.30;7.30;;;1.60;99.90;;;;;;5095838;28;37735;-73
2021/01/10 08:21:14;;;;;;;18.50;4.47;;;1.80;99.90;;;;;;5089640;28;37350;-73
2021/01/10 08:23:42;;;;;;;11.93;4.97;;;1.90;99.90;;;;;;5077639;28;39537;-73
2021/01/10 08:26:10;;;;;;;13.60;5.10;;;2.00;99.90;;;;;;5053765;28;37280;-73
2021/01/10 08:28:42;;;;;;;14.00;4.13;;;2.10;99.90;;;;;;5073594;28;39101;-72
2021/01/10 08:31:11;;;;;;;9.93;4.27;;;2.10;99.90;;;;;;5060713;28;38036;-73
2021/01/10 08:33:37;;;;;;;10.97;3.73;;;2.20;99.90;;;;;;5068698;28;38441;-73
2021/01/10 08:36:17;;;;;;;16.70;6.60;;;2.20;99.90;;;;;;5074306;28;39076;-73
2021/01/10 08:38:53;;;;;;;9.77;4.27;;;2.10;99.90;;;;;;5077204;28;37155;-73
2021/01/10 08:41:24;;;;;;;12.53;5.00;;;2.10;99.90;;;;;;5072334;28;37917;-73
2021/01/10 08:43:56;;;;;;;10.00;3.10;;;2.10;99.90;;;;;;5088794;28;39042;-73
2021/01/10 08:46:26;;;;;;;11.03;4.13;;;2.20;99.90;;;;;;5074831;28;39038;-72
2021/01/10 08:48:53;;;;;;;10.13;4.30;;;2.30;99.90;;;;;;5090123;28;37956;-73
2021/01/10 08:51:42;;;;;;;8.20;3.40;;;2.30;99.90;;;;;;5085717;28;38671;-73
2021/01/10 08:54:27;;;;;;;14.60;4.30;;;2.30;99.90;;;;;;5080928;28;39851;-72
2021/01/10 08:56:55;;;;;;;9.57;4.27;;;2.30;99.90;;;;;;5071959;28;38925;-73
2021/01/10 08:59:22;;;;;;;13.87;4.97;;;2.20;99.90;;;;;;5080072;28;39183;-73
2021/01/10 09:01:49;;;;;;;13.37;5.97;;;2.10;99.90;;;;;;5083459;28;37868;-73
2021/01/10 09:04:16;;;;;;;14.93;5.57;;;2.00;99.90;;;;;;5071980;28;39857;-73
2021/01/10 09:07:15;;;;;;;14.23;5.77;;;2.00;99.90;;;;;;5068929;28;38903;-73
2021/01/10 09:09:50;;;;;;;15.33;5.40;;;2.00;99.90;;;;;;5076368;28;47313;-73
2021/01/10 09:12:34;;;;;;;14.93;6.43;;;2.10;99.90;;;;;;5070472;28;37864;-73
2021/01/10 09:15:08;;;;;;;17.87;7.87;;;2.10;99.90;;;;;;5097733;28;38862;-73
2021/01/10 09:17:36;;;;;;;15.60;6.77;;;2.10;99.90;;;;;;5070793;28;47328;-73
2021/01/10 09:20:11;;;;;;;19.30;9.57;;;2.20;99.90;;;;;;5091411;28;39045;-73
2021/01/10 09:22:38;;;;;;;17.47;9.60;;;2.30;99.90;;;;;;5076101;28;47053;-72
2021/01/10 09:25:15;;;;;;;23.87;10.40;;;2.40;99.90;;;;;;5074641;28;40823;-73
2021/01/10 09:28:10;;;;;;;19.87;9.73;;;2.50;99.90;;;;;;5067809;28;47252;-73
2021/01/10 09:30:43;;;;;;;18.77;9.23;;;2.50;99.90;;;;;;5066030;28;49055;-73
2021/01/10 09:33:10;;;;;;;18.48;9.25;;;2.50;99.90;;;;;;5065465;28;37362;-72
2021/01/10 09:35:42;;;;;;;19.70;9.17;;;2.60;99.90;;;;;;5082404;28;40915;-73
2021/01/10 09:38:13;;;;;;;18.50;8.88;;;2.60;99.90;;;;;;5069577;28;38350;-73
2021/01/10 09:40:59;;;;;;;19.90;9.87;;;2.70;99.90;;;;;;5066457;28;36875;-72
2021/01/10 09:43:46;;;;;;;16.57;9.07;;;2.80;99.90;;;;;;5080495;28;34313;-73
2021/01/10 09:46:32;;;;;;;21.17;10.07;;;2.80;99.90;;;;;;5080476;28;39182;-73
2021/01/10 09:49:15;;;;;;;19.00;9.67;;;2.80;99.90;;;;;;5095071;28;39415;-73
2021/01/10 09:51:43;;;;;;;26.77;9.93;;;2.80;99.90;;;;;;5101062;28;48445;-73
2021/01/10 09:54:17;;;;;;;19.83;8.50;;;2.90;99.90;;;;;;5090695;28;36019;-72
2021/01/10 09:56:44;;;;;;;17.00;9.10;;;3.00;99.90;;;;;;5090358;28;39740;-73
2021/01/10 09:59:47;;;;;;;14.97;8.67;;;3.20;99.90;;;;;;5089580;28;37563;-72
2021/01/10 10:02:17;;;;;;;16.20;8.93;;;3.30;99.90;;;;;;5071784;28;39089;-72
2021/01/10 10:04:45;;;;;;;16.00;8.83;;;3.30;99.90;;;;;;5067850;28;35861;-75
2021/01/10 10:07:28;;;;;;;12.73;7.17;;;3.40;99.90;;;;;;5074636;28;38498;-72
2021/01/10 10:09:55;;;;;;;19.50;7.63;;;3.40;99.90;;;;;;5084460;28;37995;-73
2021/01/10 10:12:23;;;;;;;15.63;8.40;;;3.50;99.90;;;;;;5064797;28;38611;-73
2021/01/10 10:14:57;;;;;;;11.03;6.87;;;3.50;99.90;;;;;;5071709;28;37184;-73
2021/01/10 10:17:32;;;;;;;14.10;7.50;;;3.70;99.90;;;;;;5086518;28;39904;-73
2021/01/10 10:19:58;;;;;;;12.87;6.80;;;3.80;99.90;;;;;;5084003;28;38291;-73
2021/01/10 10:22:30;;;;;;;13.13;6.13;;;3.80;99.90;;;;;;5092449;28;38065;-72
2021/01/10 10:24:57;;;;;;;13.77;7.03;;;3.80;99.90;;;;;;5088449;28;37744;-74
2021/01/10 10:27:25;;;;;;;11.77;6.93;;;4.00;99.90;;;;;;5083114;28;39770;-75
2021/01/10 10:29:51;;;;;;;8.67;5.57;;;4.00;99.90;;;;;;5082725;28;40492;-75
2021/01/10 10:32:17;;;;;;;10.23;6.27;;;4.10;99.90;;;;;;5093578;28;38530;-76
2021/01/10 10:34:43;;;;;;;10.37;5.60;;;4.20;99.90;;;;;;5088591;28;38071;-75
2021/01/10 10:37:09;;;;;;;11.93;5.40;;;4.30;99.90;;;;;;5082295;28;39864;-75
2021/01/10 10:39:36;;;;;;;12.87;5.53;;;4.40;99.90;;;;;;5079282;28;38840;-75
2021/01/10 10:42:03;;;;;;;11.93;5.87;;;4.50;99.90;;;;;;5082951;28;38788;-75
2021/01/10 10:44:30;;;;;;;9.17;5.27;;;4.50;99.90;;;;;;5087223;28;36989;-75
2021/01/10 10:46:56;;;;;;;10.07;6.33;;;4.60;99.90;;;;;;5085291;28;40347;-75
2021/01/10 10:49:22;;;;;;;5.50;4.90;;;4.60;99.90;;;;;;5066974;28;38641;-76
2021/01/10 10:51:48;;;;;;;8.70;5.13;;;4.50;99.90;;;;;;5092794;28;37753;-75
2021/01/10 10:54:15;;;;;;;6.77;5.40;;;4.40;99.90;;;;;;5083419;28;38039;-76
2021/01/10 10:56:46;;;;;;;11.17;5.07;;;4.50;99.90;;;;;;5090772;28;38896;-75
2021/01/10 10:59:12;;;;;;;7.23;4.80;;;4.50;99.90;;;;;;5082497;28;38608;-74
2021/01/10 11:01:43;;;;;;;9.83;4.93;;;4.60;99.90;;;;;;5078094;28;38129;-75
2021/01/10 11:04:10;;;;;;;8.00;4.93;;;4.70;99.90;;;;;;5078031;28;37238;-76
2021/01/10 11:06:37;;;;;;;7.23;4.73;;;4.80;99.90;;;;;;5079046;28;37816;-76
2021/01/10 11:09:08;;;;;;;7.20;4.07;;;4.90;99.90;;;;;;5086655;28;39042;-76
2021/01/10 11:11:47;;;;;;;10.40;5.40;;;4.90;99.90;;;;;;5065456;28;20382;-76
2021/01/10 11:14:15;;;;;;;8.87;4.53;;;5.00;99.90;;;;;;5073691;28;37782;-76
2021/01/10 11:16:43;;;;;;;8.60;4.33;;;5.00;99.90;;;;;;5071846;28;40396;-76
2021/01/10 11:19:10;;;;;;;8.30;4.43;;;5.10;99.90;;;;;;5072843;28;39272;-77
2021/01/10 11:21:38;;;;;;;9.63;4.80;;;5.20;99.90;;;;;;5087654;28;38694;-76
2021/01/10 11:24:06;;;;;;;8.80;4.77;;;5.40;99.90;;;;;;5079385;28;37673;-76
2021/01/10 11:26:33;;;;;;;13.03;5.80;;;5.50;99.90;;;;;;5080650;28;38412;-76
2021/01/10 11:28:59;;;;;;;13.50;6.23;;;5.70;99.90;;;;;;5068084;28;38953;-76
2021/01/10 11:31:26;;;;;;;9.37;5.00;;;5.80;99.90;;;;;;5085229;28;36350;-77
2021/01/10 11:33:53;;;;;;;11.33;6.37;;;5.80;99.90;;;;;;5062468;28;38204;-76
2021/01/10 11:36:20;;;;;;;7.47;4.30;;;5.80;99.90;;;;;;5080953;27;39398;-76
2021/01/10 11:38:53;;;;;;;8.00;4.37;;;5.90;99.90;;;;;;5106293;27;39240;-75
2021/01/10 11:41:20;;;;;;;6.87;4.03;;;5.80;99.90;;;;;;5090625;28;37946;-76
2021/01/10 11:43:48;;;;;;;6.03;4.17;;;5.70;99.90;;;;;;5074307;28;38011;-76
2021/01/10 11:46:14;;;;;;;7.10;4.13;;;5.70;99.90;;;;;;5080342;28;39896;-76
2021/01/10 11:48:41;;;;;;;6.47;4.17;;;5.70;99.90;;;;;;5088183;27;40131;-76
2021/01/10 11:51:09;;;;;;;7.20;4.60;;;5.70;99.90;;;;;;5084701;27;38476;-76
2021/01/10 11:53:35;;;;;;;8.80;5.20;;;5.80;99.90;;;;;;5069879;28;38330;-76
2021/01/10 11:56:02;;;;;;;10.73;5.47;;;5.80;99.90;;;;;;5082975;28;38585;-76
2021/01/10 11:58:28;;;;;;;9.33;5.93;;;5.80;99.90;;;;;;5078873;28;39499;-76
2021/01/10 12:00:55;;;;;;;11.60;5.20;;;5.80;99.90;;;;;;5086639;28;38099;-76
2021/01/10 12:03:23;;;;;;;8.87;5.93;;;5.80;99.90;;;;;;5075477;28;37864;-76
2021/01/10 12:05:49;;;;;;;11.30;5.93;;;5.90;99.90;;;;;;5088490;28;38947;-76
2021/01/10 12:08:17;;;;;;;12.57;6.93;;;6.00;99.90;;;;;;5076133;28;38478;-76
2021/01/10 12:10:43;;;;;;;10.73;5.90;;;5.90;99.90;;;;;;5067631;28;38699;-75
2021/01/10 12:13:10;;;;;;;7.43;5.63;;;5.90;99.90;;;;;;5073634;28;38130;-76
2021/01/10 12:15:36;;;;;;;8.17;5.60;;;5.80;99.90;;;;;;5092367;28;39827;-76
2021/01/10 12:18:06;;;;;;;11.33;6.63;;;5.70;99.90;;;;;;5073727;28;38960;-76
2021/01/10 12:20:32;;;;;;;14.37;7.20;;;5.60;99.90;;;;;;5068972;28;38518;-76
2021/01/10 12:22:59;;;;;;;12.17;5.70;;;5.50;99.90;;;;;;5063541;28;36833;-75
2021/01/10 12:25:25;;;;;;;11.00;6.10;;;5.50;99.90;;;;;;5090976;28;38854;-76
2021/01/10 12:27:52;;;;;;;9.83;6.07;;;5.50;99.90;;;;;;5090532;28;38866;-76
2021/01/10 12:30:18;;;;;;;10.00;6.17;;;5.50;99.90;;;;;;5074733;28;37001;-76
2021/01/10 12:32:44;;;;;;;13.30;6.77;;;5.50;99.90;;;;;;5084942;28;36248;-76
2021/01/10 12:35:12;;;;;;;13.63;6.47;;;5.60;99.90;;;;;;5059163;28;40140;-76
2021/01/10 12:37:38;;;;;;;8.97;6.63;;;5.70;99.90;;;;;;5089475;28;38941;-75
2021/01/10 12:40:07;;;;;;;10.97;6.53;;;5.70;99.90;;;;;;5075008;28;38612;-76
2021/01/10 12:42:33;;;;;;;12.00;6.00;;;5.70;99.90;;;;;;5087714;28;37319;-76
2021/01/10 12:45:00;;;;;;;9.30;5.57;;;5.80;99.90;;;;;;5079849;28;39377;-76
2021/01/10 12:47:26;;;;;;;10.23;5.43;;;5.80;99.90;;;;;;5091271;28;39850;-76
2021/01/10 12:49:52;;;;;;;8.93;6.23;;;5.70;99.90;;;;;;5073934;28;39148;-75
2021/01/10 12:52:19;;;;;;;9.63;5.83;;;5.60;99.90;;;;;;5091241;28;35404;-76
2021/01/10 12:54:45;;;;;;;10.17;5.23;;;5.70;99.90;;;;;;5074485;28;38408;-77
2021/01/10 12:57:11;;;;;;;14.47;6.80;;;5.60;99.90;;;;;;5077682;28;40117;-76
2021/01/10 12:59:37;;;;;;;10.10;5.23;;;5.70;99.90;;;;;;5090952;27;37883;-78
2021/01/10 13:02:05;;;;;;;7.67;5.77;;;5.90;99.90;;;;;;5083824;28;38576;-76